createdAt,value
2024-02-01T00:02:04.011Z,102135.97
2024-02-01T00:07:06.666Z,102124.28
2024-02-01T00:12:09.556Z,102117.75
2024-02-01T00:17:12.199Z,102107.94
2024-02-01T00:22:23.210Z,102121.50
2024-02-01T00:27:30.772Z,102121.94
2024-02-01T00:32:33.534Z,102123.03
2024-02-01T00:37:36.209Z,102099.41
2024-02-01T00:42:38.962Z,102101.09
2024-02-01T00:47:41.749Z,102091.75
2024-02-01T00:52:44.724Z,102075.97
2024-02-01T00:57:47.666Z,102056.19
2024-02-01T01:02:50.291Z,102051.38
2024-02-01T01:07:53.260Z,102053.47
2024-02-01T01:12:56.140Z,102054.59
2024-02-01T01:17:58.977Z,102048.72
2024-02-01T01:23:01.840Z,102045.81
2024-02-01T01:28:04.809Z,102037.78
2024-02-01T01:33:07.564Z,102037.41
2024-02-01T01:38:10.276Z,102033.09
2024-02-01T01:43:12.890Z,102030.53
2024-02-01T01:48:15.758Z,102021.09
2024-02-01T01:53:18.674Z,102019.97
2024-02-01T01:58:21.798Z,102009.22
2024-02-01T02:03:30.109Z,102011.28
2024-02-01T02:08:34.152Z,102009.09
2024-02-01T02:13:36.990Z,101999.97
2024-02-01T02:18:39.882Z,101999.31
2024-02-01T02:23:42.926Z,101986.19
2024-02-01T02:28:45.604Z,101977.97
2024-02-01T02:33:48.177Z,101974.38
2024-02-01T02:38:50.838Z,101970.97
2024-02-01T02:43:54.079Z,101980.16
2024-02-01T02:48:58.364Z,101963.28
2024-02-01T02:54:01.034Z,101946.09
2024-02-01T02:59:03.749Z,101921.34
2024-02-01T03:04:09.814Z,101919.41
2024-02-01T03:09:18.558Z,101917.78
2024-02-01T03:14:21.360Z,101902.06
2024-02-01T03:19:24.191Z,101887.91
2024-02-01T03:24:26.883Z,101884.47
2024-02-01T03:29:29.778Z,101880.69
2024-02-01T03:34:35.149Z,101873.34
2024-02-01T03:39:38.111Z,101870.06
2024-02-01T03:44:41.686Z,101868.16
2024-02-01T03:49:44.652Z,101863.44
2024-02-01T03:54:48.236Z,101850.31
2024-02-01T03:59:51.495Z,101846.28
2024-02-01T04:04:54.203Z,101825.22
2024-02-01T04:09:57.019Z,101832.63
2024-02-01T04:15:03.956Z,101836.72
2024-02-01T04:20:10.209Z,101817.56
2024-02-01T04:25:13.755Z,101819.19
2024-02-01T04:30:17.692Z,101811.28
2024-02-01T04:35:20.404Z,101815.16
2024-02-01T04:40:23.476Z,101821.50
2024-02-01T04:45:26.362Z,101800.88
2024-02-01T04:50:29.425Z,101800.53
2024-02-01T04:55:35.246Z,101792.22
2024-02-01T05:00:38.295Z,101797.19
2024-02-01T05:05:40.993Z,101787.38
2024-02-01T05:10:46.485Z,101771.50
2024-02-01T05:15:49.304Z,101764.97
2024-02-01T05:20:52.132Z,101776.81
2024-02-01T05:25:54.812Z,101769.13
2024-02-01T05:30:59.056Z,101751.56
2024-02-01T05:36:08.119Z,101751.66
2024-02-01T05:41:13.817Z,101745.75
2024-02-01T05:46:16.802Z,101725.75
2024-02-01T05:51:19.453Z,101724.06
2024-02-01T05:56:22.082Z,101721.56
2024-02-01T06:01:24.857Z,101729.91
2024-02-01T06:06:27.832Z,101718.25
2024-02-01T06:11:30.729Z,101716.88
2024-02-01T06:16:33.720Z,101728.41
2024-02-01T06:21:37.567Z,101695.94
2024-02-01T06:26:40.452Z,101701.81
2024-02-01T06:31:43.565Z,101691.81
2024-02-01T06:36:54.669Z,101698.75
2024-02-01T06:42:15.582Z,101679.63
2024-02-01T06:47:37.765Z,101663.34
2024-02-01T06:52:44.656Z,101668.75
2024-02-01T06:57:54.771Z,101658.03
2024-02-01T07:03:04.238Z,101655.09
2024-02-01T07:08:14.686Z,101644.00
2024-02-01T07:13:23.788Z,101647.16
2024-02-01T07:18:32.423Z,101636.81
2024-02-01T07:23:36.053Z,101605.13
2024-02-01T07:29:17.009Z,101607.31
2024-02-01T07:34:38.081Z,101607.22
2024-02-01T07:39:59.362Z,101589.28
2024-02-01T07:45:20.354Z,101575.63
2024-02-01T07:50:42.078Z,101564.94
2024-02-01T07:56:03.279Z,101565.03
2024-02-01T08:01:15.978Z,101549.66
2024-02-01T08:06:37.225Z,101538.75
2024-02-01T08:11:43.405Z,101540.47
2024-02-01T08:16:47.852Z,101529.56
2024-02-01T08:21:51.416Z,101522.53
2024-02-01T08:26:54.228Z,101524.81
2024-02-01T08:31:56.872Z,101519.78
2024-02-01T08:37:00.037Z,101501.09
2024-02-01T08:42:05.028Z,101489.44
2024-02-01T08:47:07.887Z,101477.03
2024-02-01T08:52:15.748Z,101471.16
2024-02-01T08:57:19.366Z,101452.47
2024-02-01T09:02:23.136Z,101447.53
2024-02-01T09:07:29.333Z,101435.03
2024-02-01T09:12:32.024Z,101436.81
2024-02-01T09:17:34.847Z,101420.13
2024-02-01T09:22:37.543Z,101424.97
2024-02-01T09:27:40.831Z,101409.91
2024-02-01T09:32:43.413Z,101410.38
2024-02-01T09:37:46.386Z,101392.88
2024-02-01T09:42:50.938Z,101399.91
2024-02-01T09:47:53.770Z,101394.56
2024-02-01T09:52:59.001Z,101378.28
2024-02-01T09:58:02.285Z,101375.72
2024-02-01T10:03:06.131Z,101373.47
2024-02-01T10:08:13.305Z,101369.63
2024-02-01T10:13:17.796Z,101360.28
2024-02-01T10:18:22.248Z,101345.06
2024-02-01T10:23:25.918Z,101344.19
2024-02-01T10:28:36.331Z,101332.91
2024-02-01T10:33:40.637Z,101337.72
2024-02-01T10:38:46.208Z,101311.22
2024-02-01T10:43:49.983Z,101307.84
2024-02-01T10:49:21.023Z,101296.41
2024-02-01T10:54:25.356Z,101284.94
2024-02-01T10:59:29.158Z,101290.25
2024-02-01T11:04:40.160Z,101288.97
2024-02-01T11:09:45.102Z,101277.03
2024-02-01T11:14:50.198Z,101286.69
2024-02-01T11:19:54.830Z,101284.19
2024-02-01T11:25:08.040Z,101280.53
2024-02-01T11:30:23.248Z,101270.75
2024-02-01T11:35:28.284Z,101266.56
2024-02-01T11:40:31.281Z,101259.16
2024-02-01T11:45:34.246Z,101274.22
2024-02-01T11:50:37.003Z,101265.72
2024-02-01T11:55:40.880Z,101261.25
2024-02-01T12:00:56.666Z,101259.16
2024-02-01T12:06:06.611Z,101258.59
2024-02-01T12:11:09.667Z,101261.09
2024-02-01T12:16:16.191Z,101264.81
2024-02-01T12:21:28.091Z,101235.06
2024-02-01T12:26:31.877Z,101266.34
2024-02-01T12:31:37.470Z,101267.47
2024-02-01T12:36:41.815Z,101256.28
2024-02-01T12:41:47.126Z,101248.09
2024-02-01T12:46:50.215Z,101245.44
2024-02-01T12:51:55.411Z,101247.53
2024-02-01T12:56:58.505Z,101241.06
2024-02-01T13:02:03.576Z,101230.72
2024-02-01T13:07:13.315Z,101226.75
2024-02-01T13:12:22.420Z,101225.84
2024-02-01T13:17:29.929Z,101222.84
2024-02-01T13:22:37.321Z,101219.56
2024-02-01T13:27:40.173Z,101217.06
2024-02-01T13:32:45.469Z,101202.66
2024-02-01T13:37:49.534Z,101207.09
2024-02-01T13:42:55.489Z,101184.94
2024-02-01T13:47:58.641Z,101171.22
2024-02-01T13:53:02.345Z,101167.28
2024-02-01T13:58:05.732Z,101172.38
2024-02-01T14:03:09.397Z,101174.50
2024-02-01T14:08:13.879Z,101170.38
2024-02-01T14:13:16.959Z,101175.81
2024-02-01T14:18:19.807Z,101146.03
2024-02-01T14:23:24.523Z,101161.28
2024-02-01T14:28:27.820Z,101164.91
2024-02-01T14:33:30.799Z,101161.75
2024-02-01T14:38:34.050Z,101159.72
2024-02-01T14:44:08.405Z,101135.78
2024-02-01T14:55:01.898Z,101116.19
2024-02-01T15:00:10.068Z,101127.16
2024-02-01T15:05:15.266Z,101131.56
2024-02-01T15:10:18.574Z,101113.38
2024-02-01T15:15:22.999Z,101126.97
2024-02-01T15:20:35.542Z,101115.75
2024-02-01T15:25:44.548Z,101110.06
2024-02-01T15:30:50.466Z,101091.22
2024-02-01T15:35:53.899Z,101104.59
2024-02-01T15:40:57.656Z,101103.06
2024-02-01T15:46:00.247Z,101100.00
2024-02-01T15:51:04.743Z,101098.75
2024-02-01T15:56:08.299Z,101091.28
2024-02-01T16:01:13.224Z,101082.75
2024-02-01T16:06:20.293Z,101080.75
2024-02-01T16:11:24.601Z,101068.38
2024-02-01T16:16:31.983Z,101057.88
2024-02-01T16:21:36.407Z,101045.94
2024-02-01T16:26:41.050Z,101050.03
2024-02-01T16:31:43.736Z,101061.31
2024-02-01T16:36:54.795Z,101058.84
2024-02-01T16:41:59.477Z,101062.63
2024-02-01T16:47:02.249Z,101048.97
2024-02-01T16:52:13.086Z,101057.31
2024-02-01T16:57:20.970Z,101044.06
2024-02-01T17:02:55.949Z,101047.59
2024-02-01T17:08:02.578Z,101048.13
2024-02-01T17:13:07.150Z,101040.84
2024-02-01T17:18:16.141Z,101034.50
2024-02-01T17:23:19.673Z,101025.16
2024-02-01T17:28:42.733Z,101008.84
2024-02-01T17:34:07.249Z,101002.28
2024-02-01T17:39:10.767Z,101002.13
2024-02-01T17:44:37.453Z,101000.63
2024-02-01T17:49:45.743Z,100999.94
2024-02-01T17:54:49.318Z,100989.16
2024-02-01T17:59:51.916Z,100999.91
2024-02-01T18:04:56.014Z,100990.88
2024-02-01T18:09:59.626Z,100992.31
2024-02-01T18:15:12.373Z,100987.00
2024-02-01T18:20:22.751Z,100974.75
2024-02-01T18:25:34.262Z,100977.69
2024-02-01T18:30:44.771Z,100945.13
2024-02-01T18:35:56.318Z,100958.81
2024-02-01T18:40:59.173Z,100956.19
2024-02-01T18:46:05.210Z,100956.44
2024-02-01T18:51:09.465Z,100946.97
2024-02-01T18:56:26.281Z,100942.09
2024-02-01T19:01:33.250Z,100939.59
2024-02-01T19:06:44.460Z,100943.09
2024-02-01T19:11:48.918Z,100936.94
2024-02-01T19:16:53.141Z,100921.88
2024-02-01T19:21:57.065Z,100930.13
2024-02-01T19:27:00.636Z,100928.28
2024-02-01T19:32:28.391Z,100931.25
2024-02-01T19:38:18.161Z,100925.94
2024-02-01T19:43:20.962Z,100915.19
2024-02-01T19:48:24.272Z,100935.81
2024-02-01T19:53:27.244Z,100923.94
2024-02-01T19:58:30.208Z,100916.38
2024-02-01T20:03:33.075Z,100890.41
2024-02-01T20:08:36.192Z,100908.72
2024-02-01T20:13:40.065Z,100902.44
2024-02-01T20:18:43.153Z,100897.44
2024-02-01T20:23:46.101Z,100896.91
2024-02-01T20:28:58.661Z,100891.16
2024-02-01T20:34:14.628Z,100900.38
2024-02-01T20:39:38.361Z,100881.97
2024-02-01T20:44:41.196Z,100885.16
2024-02-01T20:49:44.422Z,100887.28
2024-02-01T20:55:11.804Z,100887.28
2024-02-01T21:00:21.827Z,100881.41
2024-02-01T21:05:41.481Z,100890.91
2024-02-01T21:10:53.728Z,100869.97
2024-02-01T21:15:56.567Z,100872.19
2024-02-01T21:21:04.799Z,100870.13
2024-02-01T21:26:19.852Z,100881.25
2024-02-01T21:31:25.395Z,100868.97
2024-02-01T21:36:27.962Z,100841.19
2024-02-01T21:41:33.451Z,100837.59
2024-02-01T21:46:36.792Z,100834.25
2024-02-01T21:51:39.522Z,100830.09
2024-02-01T21:56:43.253Z,100829.25
2024-02-01T22:01:45.942Z,100838.03
2024-02-01T22:06:48.600Z,100823.91
2024-02-01T22:11:51.276Z,100821.56
2024-02-01T22:16:54.088Z,100822.50
2024-02-01T22:21:56.935Z,100806.44
2024-02-01T22:27:01.992Z,100813.81
2024-02-01T22:32:05.014Z,100807.38
2024-02-01T22:37:07.734Z,100804.00
2024-02-01T22:42:10.604Z,100798.28
2024-02-01T22:47:14.939Z,100802.41
2024-02-01T22:52:17.550Z,100807.44
2024-02-01T22:57:20.177Z,100808.06
2024-02-01T23:02:22.784Z,100811.28
2024-02-01T23:07:26.801Z,100810.19
2024-02-01T23:12:29.690Z,100811.28
2024-02-01T23:17:32.402Z,100809.75
2024-02-01T23:22:35.554Z,100801.50
2024-02-01T23:27:38.817Z,100795.34
2024-02-01T23:32:41.617Z,100779.56
2024-02-01T23:37:44.400Z,100798.28
2024-02-01T23:42:47.124Z,100787.19
2024-02-01T23:47:50.063Z,100784.72
2024-02-01T23:52:52.977Z,100774.44
2024-02-01T23:57:55.684Z,100778.72
